sensor_id;sensor_type;location;lat;lon;timestamp;temperature;humidity
81192;DHT22;70665;47.652;-2.730;2023-07-24T00:00:40;17.30;90.90
81192;DHT22;70665;47.652;-2.730;2023-07-24T00:03:06;17.40;91.10
81192;DHT22;70665;47.652;-2.730;2023-07-24T00:05:32;17.40;90.80
81192;DHT22;70665;47.652;-2.730;2023-07-24T00:07:57;17.40;90.40
81192;DHT22;70665;47.652;-2.730;2023-07-24T00:10:23;17.30;90.10
81192;DHT22;70665;47.652;-2.730;2023-07-24T00:12:48;17.30;90.30
81192;DHT22;70665;47.652;-2.730;2023-07-24T00:15:14;17.30;90.00
81192;DHT22;70665;47.652;-2.730;2023-07-24T00:17:40;17.30;89.60
81192;DHT22;70665;47.652;-2.730;2023-07-24T00:20:05;17.30;90.10
81192;DHT22;70665;47.652;-2.730;2023-07-24T00:22:31;17.40;89.80
81192;DHT22;70665;47.652;-2.730;2023-07-24T00:24:57;17.30;89.70
81192;DHT22;70665;47.652;-2.730;2023-07-24T00:27:23;17.40;89.30
81192;DHT22;70665;47.652;-2.730;2023-07-24T00:29:48;17.40;89.60
81192;DHT22;70665;47.652;-2.730;2023-07-24T00:32:14;17.40;89.70
81192;DHT22;70665;47.652;-2.730;2023-07-24T00:34:40;17.40;89.30
81192;DHT22;70665;47.652;-2.730;2023-07-24T00:37:06;17.40;89.60
81192;DHT22;70665;47.652;-2.730;2023-07-24T00:39:32;17.40;89.50
81192;DHT22;70665;47.652;-2.730;2023-07-24T00:41:57;17.40;89.70
81192;DHT22;70665;47.652;-2.730;2023-07-24T00:44:23;17.40;89.50
81192;DHT22;70665;47.652;-2.730;2023-07-24T00:46:49;17.50;89.80
81192;DHT22;70665;47.652;-2.730;2023-07-24T00:49:15;17.50;89.60
81192;DHT22;70665;47.652;-2.730;2023-07-24T00:51:42;17.50;89.60
81192;DHT22;70665;47.652;-2.730;2023-07-24T00:54:11;17.50;89.60
81192;DHT22;70665;47.652;-2.730;2023-07-24T00:56:36;17.50;89.30
81192;DHT22;70665;47.652;-2.730;2023-07-24T00:59:02;17.60;89.80
81192;DHT22;70665;47.652;-2.730;2023-07-24T01:01:28;17.50;89.80
81192;DHT22;70665;47.652;-2.730;2023-07-24T01:03:56;17.50;89.50
81192;DHT22;70665;47.652;-2.730;2023-07-24T01:06:23;17.60;89.60
81192;DHT22;70665;47.652;-2.730;2023-07-24T01:08:49;17.60;89.60
81192;DHT22;70665;47.652;-2.730;2023-07-24T01:11:16;17.60;89.80
81192;DHT22;70665;47.652;-2.730;2023-07-24T01:13:51;17.60;89.20
81192;DHT22;70665;47.652;-2.730;2023-07-24T01:16:21;17.50;89.00
81192;DHT22;70665;47.652;-2.730;2023-07-24T01:18:49;17.60;89.10
81192;DHT22;70665;47.652;-2.730;2023-07-24T01:21:20;17.60;89.60
81192;DHT22;70665;47.652;-2.730;2023-07-24T01:26:31;17.50;89.30
81192;DHT22;70665;47.652;-2.730;2023-07-24T01:28:57;17.60;89.20
81192;DHT22;70665;47.652;-2.730;2023-07-24T01:31:22;17.60;89.10
81192;DHT22;70665;47.652;-2.730;2023-07-24T01:33:48;17.50;89.40
81192;DHT22;70665;47.652;-2.730;2023-07-24T01:36:14;17.50;89.60
81192;DHT22;70665;47.652;-2.730;2023-07-24T01:38:41;17.40;89.50
81192;DHT22;70665;47.652;-2.730;2023-07-24T01:41:07;17.40;89.50
81192;DHT22;70665;47.652;-2.730;2023-07-24T01:43:33;17.50;89.70
81192;DHT22;70665;47.652;-2.730;2023-07-24T01:45:58;17.40;89.90
81192;DHT22;70665;47.652;-2.730;2023-07-24T01:48:24;17.40;90.00
81192;DHT22;70665;47.652;-2.730;2023-07-24T01:50:50;17.40;90.10
81192;DHT22;70665;47.652;-2.730;2023-07-24T01:53:15;17.30;90.40
81192;DHT22;70665;47.652;-2.730;2023-07-24T01:55:41;17.20;90.40
81192;DHT22;70665;47.652;-2.730;2023-07-24T01:58:07;17.20;90.80
81192;DHT22;70665;47.652;-2.730;2023-07-24T02:00:32;17.10;90.50
81192;DHT22;70665;47.652;-2.730;2023-07-24T02:02:58;17.10;91.10
81192;DHT22;70665;47.652;-2.730;2023-07-24T02:05:25;17.00;91.20
81192;DHT22;70665;47.652;-2.730;2023-07-24T02:07:51;17.10;90.80
81192;DHT22;70665;47.652;-2.730;2023-07-24T02:10:17;17.00;91.20
81192;DHT22;70665;47.652;-2.730;2023-07-24T02:12:42;17.00;90.90
81192;DHT22;70665;47.652;-2.730;2023-07-24T02:15:08;16.90;91.20
81192;DHT22;70665;47.652;-2.730;2023-07-24T02:17:34;17.00;90.80
81192;DHT22;70665;47.652;-2.730;2023-07-24T02:20:00;16.90;90.80
81192;DHT22;70665;47.652;-2.730;2023-07-24T02:22:25;16.90;91.20
81192;DHT22;70665;47.652;-2.730;2023-07-24T02:24:51;16.90;91.20
81192;DHT22;70665;47.652;-2.730;2023-07-24T02:27:26;16.90;91.60
81192;DHT22;70665;47.652;-2.730;2023-07-24T02:29:52;16.80;91.60
81192;DHT22;70665;47.652;-2.730;2023-07-24T02:32:18;16.80;91.50
81192;DHT22;70665;47.652;-2.730;2023-07-24T02:34:47;16.80;91.30
81192;DHT22;70665;47.652;-2.730;2023-07-24T02:37:12;16.80;91.90
81192;DHT22;70665;47.652;-2.730;2023-07-24T02:39:38;16.70;91.50
81192;DHT22;70665;47.652;-2.730;2023-07-24T02:42:03;16.80;92.00
81192;DHT22;70665;47.652;-2.730;2023-07-24T02:44:29;16.80;91.50
81192;DHT22;70665;47.652;-2.730;2023-07-24T02:46:55;16.80;91.60
81192;DHT22;70665;47.652;-2.730;2023-07-24T02:49:20;16.80;91.30
81192;DHT22;70665;47.652;-2.730;2023-07-24T02:51:46;16.90;91.20
81192;DHT22;70665;47.652;-2.730;2023-07-24T02:54:11;16.90;91.00
81192;DHT22;70665;47.652;-2.730;2023-07-24T02:56:37;17.00;90.80
81192;DHT22;70665;47.652;-2.730;2023-07-24T02:59:02;17.00;90.50
81192;DHT22;70665;47.652;-2.730;2023-07-24T03:01:28;17.00;90.30
81192;DHT22;70665;47.652;-2.730;2023-07-24T03:03:53;16.90;90.30
81192;DHT22;70665;47.652;-2.730;2023-07-24T03:06:19;17.00;90.50
81192;DHT22;70665;47.652;-2.730;2023-07-24T03:08:44;16.90;90.30
81192;DHT22;70665;47.652;-2.730;2023-07-24T03:11:10;16.90;90.60
81192;DHT22;70665;47.652;-2.730;2023-07-24T03:13:36;16.90;90.60
81192;DHT22;70665;47.652;-2.730;2023-07-24T03:16:01;16.90;90.50
81192;DHT22;70665;47.652;-2.730;2023-07-24T03:18:27;16.90;90.80
81192;DHT22;70665;47.652;-2.730;2023-07-24T03:20:53;16.80;90.80
81192;DHT22;70665;47.652;-2.730;2023-07-24T03:23:18;16.80;91.10
81192;DHT22;70665;47.652;-2.730;2023-07-24T03:25:45;16.80;90.80
81192;DHT22;70665;47.652;-2.730;2023-07-24T03:28:11;16.90;90.60
81192;DHT22;70665;47.652;-2.730;2023-07-24T03:30:36;16.90;91.20
81192;DHT22;70665;47.652;-2.730;2023-07-24T03:33:02;17.00;91.10
81192;DHT22;70665;47.652;-2.730;2023-07-24T03:35:27;17.10;91.20
81192;DHT22;70665;47.652;-2.730;2023-07-24T03:37:53;17.10;91.00
81192;DHT22;70665;47.652;-2.730;2023-07-24T03:40:19;17.10;91.30
81192;DHT22;70665;47.652;-2.730;2023-07-24T03:42:44;17.20;90.90
81192;DHT22;70665;47.652;-2.730;2023-07-24T03:45:10;17.20;91.10
81192;DHT22;70665;47.652;-2.730;2023-07-24T03:47:35;17.20;90.80
81192;DHT22;70665;47.652;-2.730;2023-07-24T03:50:01;17.20;91.00
81192;DHT22;70665;47.652;-2.730;2023-07-24T03:52:26;17.30;90.60
81192;DHT22;70665;47.652;-2.730;2023-07-24T03:54:52;17.30;90.90
81192;DHT22;70665;47.652;-2.730;2023-07-24T03:57:18;17.30;90.80
81192;DHT22;70665;47.652;-2.730;2023-07-24T03:59:43;17.30;90.90
81192;DHT22;70665;47.652;-2.730;2023-07-24T04:02:09;17.30;90.80
81192;DHT22;70665;47.652;-2.730;2023-07-24T04:04:35;17.30;91.00
81192;DHT22;70665;47.652;-2.730;2023-07-24T04:07:00;17.30;90.50
81192;DHT22;70665;47.652;-2.730;2023-07-24T04:09:26;17.40;90.60
81192;DHT22;70665;47.652;-2.730;2023-07-24T04:11:52;17.40;90.60
81192;DHT22;70665;47.652;-2.730;2023-07-24T04:14:18;17.40;90.50
81192;DHT22;70665;47.652;-2.730;2023-07-24T04:16:44;17.40;90.90
81192;DHT22;70665;47.652;-2.730;2023-07-24T04:19:10;17.40;90.90
81192;DHT22;70665;47.652;-2.730;2023-07-24T04:21:35;17.60;91.00
81192;DHT22;70665;47.652;-2.730;2023-07-24T04:24:01;17.50;90.70
81192;DHT22;70665;47.652;-2.730;2023-07-24T04:26:27;17.50;90.90
81192;DHT22;70665;47.652;-2.730;2023-07-24T04:28:52;17.50;90.50
81192;DHT22;70665;47.652;-2.730;2023-07-24T04:31:18;17.60;90.90
81192;DHT22;70665;47.652;-2.730;2023-07-24T04:33:43;17.50;90.70
81192;DHT22;70665;47.652;-2.730;2023-07-24T04:36:09;17.60;90.90
81192;DHT22;70665;47.652;-2.730;2023-07-24T04:38:34;17.60;90.80
81192;DHT22;70665;47.652;-2.730;2023-07-24T04:41:01;17.60;91.00
81192;DHT22;70665;47.652;-2.730;2023-07-24T04:43:28;17.60;90.70
81192;DHT22;70665;47.652;-2.730;2023-07-24T04:45:53;17.70;90.60
81192;DHT22;70665;47.652;-2.730;2023-07-24T04:48:19;17.80;90.70
81192;DHT22;70665;47.652;-2.730;2023-07-24T04:50:45;17.70;90.80
81192;DHT22;70665;47.652;-2.730;2023-07-24T04:53:10;17.70;91.00
81192;DHT22;70665;47.652;-2.730;2023-07-24T04:55:36;17.70;91.30
81192;DHT22;70665;47.652;-2.730;2023-07-24T04:58:01;17.70;91.70
81192;DHT22;70665;47.652;-2.730;2023-07-24T05:00:27;17.60;91.80
81192;DHT22;70665;47.652;-2.730;2023-07-24T05:02:53;17.60;91.70
81192;DHT22;70665;47.652;-2.730;2023-07-24T05:05:18;17.60;92.40
81192;DHT22;70665;47.652;-2.730;2023-07-24T05:07:44;17.60;92.50
81192;DHT22;70665;47.652;-2.730;2023-07-24T05:10:09;17.40;93.30
81192;DHT22;70665;47.652;-2.730;2023-07-24T05:12:35;17.40;93.10
81192;DHT22;70665;47.652;-2.730;2023-07-24T05:15:00;17.50;93.70
81192;DHT22;70665;47.652;-2.730;2023-07-24T05:17:26;17.40;93.70
81192;DHT22;70665;47.652;-2.730;2023-07-24T05:19:51;17.50;94.00
81192;DHT22;70665;47.652;-2.730;2023-07-24T05:22:17;17.50;93.60
81192;DHT22;70665;47.652;-2.730;2023-07-24T05:24:43;17.50;93.70
81192;DHT22;70665;47.652;-2.730;2023-07-24T05:27:08;17.50;93.20
81192;DHT22;70665;47.652;-2.730;2023-07-24T05:29:34;17.60;93.70
81192;DHT22;70665;47.652;-2.730;2023-07-24T05:31:59;17.50;93.20
81192;DHT22;70665;47.652;-2.730;2023-07-24T05:34:25;17.60;93.60
81192;DHT22;70665;47.652;-2.730;2023-07-24T05:36:51;17.50;93.50
81192;DHT22;70665;47.652;-2.730;2023-07-24T05:39:16;17.60;93.80
81192;DHT22;70665;47.652;-2.730;2023-07-24T05:41:42;17.60;93.40
81192;DHT22;70665;47.652;-2.730;2023-07-24T05:44:08;17.60;93.20
81192;DHT22;70665;47.652;-2.730;2023-07-24T05:46:33;17.70;92.90
81192;DHT22;70665;47.652;-2.730;2023-07-24T05:48:59;17.70;92.40
81192;DHT22;70665;47.652;-2.730;2023-07-24T05:51:27;17.80;91.80
81192;DHT22;70665;47.652;-2.730;2023-07-24T05:53:52;18.00;91.90
81192;DHT22;70665;47.652;-2.730;2023-07-24T05:56:18;17.90;91.40
81192;DHT22;70665;47.652;-2.730;2023-07-24T05:58:44;18.00;91.60
81192;DHT22;70665;47.652;-2.730;2023-07-24T06:01:09;18.00;91.30
81192;DHT22;70665;47.652;-2.730;2023-07-24T06:03:36;18.20;91.00
81192;DHT22;70665;47.652;-2.730;2023-07-24T06:06:01;18.20;90.60
81192;DHT22;70665;47.652;-2.730;2023-07-24T06:08:27;18.40;91.10
81192;DHT22;70665;47.652;-2.730;2023-07-24T06:10:53;18.40;90.70
81192;DHT22;70665;47.652;-2.730;2023-07-24T06:13:18;18.30;91.00
81192;DHT22;70665;47.652;-2.730;2023-07-24T06:15:46;18.30;90.90
81192;DHT22;70665;47.652;-2.730;2023-07-24T06:18:12;18.40;91.00
81192;DHT22;70665;47.652;-2.730;2023-07-24T06:20:37;18.40;91.00
81192;DHT22;70665;47.652;-2.730;2023-07-24T06:23:03;18.50;90.30
81192;DHT22;70665;47.652;-2.730;2023-07-24T06:25:30;18.60;90.00
81192;DHT22;70665;47.652;-2.730;2023-07-24T06:27:56;18.70;89.50
81192;DHT22;70665;47.652;-2.730;2023-07-24T06:30:22;18.70;89.90
81192;DHT22;70665;47.652;-2.730;2023-07-24T06:32:47;18.80;89.10
81192;DHT22;70665;47.652;-2.730;2023-07-24T06:35:13;18.90;88.80
81192;DHT22;70665;47.652;-2.730;2023-07-24T06:37:38;19.00;89.00
81192;DHT22;70665;47.652;-2.730;2023-07-24T06:40:05;19.10;87.70
81192;DHT22;70665;47.652;-2.730;2023-07-24T06:42:31;19.00;88.10
81192;DHT22;70665;47.652;-2.730;2023-07-24T06:44:56;19.00;87.50
81192;DHT22;70665;47.652;-2.730;2023-07-24T06:47:22;18.90;87.70
81192;DHT22;70665;47.652;-2.730;2023-07-24T06:49:47;19.10;87.50
81192;DHT22;70665;47.652;-2.730;2023-07-24T06:52:13;19.40;87.10
81192;DHT22;70665;47.652;-2.730;2023-07-24T06:54:38;19.50;87.10
81192;DHT22;70665;47.652;-2.730;2023-07-24T06:57:04;19.50;86.90
81192;DHT22;70665;47.652;-2.730;2023-07-24T06:59:30;19.70;86.00
81192;DHT22;70665;47.652;-2.730;2023-07-24T07:01:55;19.90;86.20
81192;DHT22;70665;47.652;-2.730;2023-07-24T07:04:21;20.00;84.80
81192;DHT22;70665;47.652;-2.730;2023-07-24T07:06:47;20.20;85.40
81192;DHT22;70665;47.652;-2.730;2023-07-24T07:09:12;20.20;84.80
81192;DHT22;70665;47.652;-2.730;2023-07-24T07:11:38;20.40;84.50
81192;DHT22;70665;47.652;-2.730;2023-07-24T07:14:04;20.20;82.40
81192;DHT22;70665;47.652;-2.730;2023-07-24T07:16:30;20.10;83.10
81192;DHT22;70665;47.652;-2.730;2023-07-24T07:18:55;20.30;83.10
81192;DHT22;70665;47.652;-2.730;2023-07-24T07:21:21;20.30;84.40
81192;DHT22;70665;47.652;-2.730;2023-07-24T07:23:47;20.40;84.90
81192;DHT22;70665;47.652;-2.730;2023-07-24T07:26:12;20.30;83.40
81192;DHT22;70665;47.652;-2.730;2023-07-24T07:28:38;20.00;84.30
81192;DHT22;70665;47.652;-2.730;2023-07-24T07:31:04;19.80;86.10
81192;DHT22;70665;47.652;-2.730;2023-07-24T07:33:30;19.60;86.40
81192;DHT22;70665;47.652;-2.730;2023-07-24T07:35:55;19.50;86.60
81192;DHT22;70665;47.652;-2.730;2023-07-24T07:38:21;19.30;86.00
81192;DHT22;70665;47.652;-2.730;2023-07-24T07:40:48;19.40;86.00
81192;DHT22;70665;47.652;-2.730;2023-07-24T07:43:13;19.40;85.70
81192;DHT22;70665;47.652;-2.730;2023-07-24T07:45:39;19.50;85.80
81192;DHT22;70665;47.652;-2.730;2023-07-24T07:48:05;19.70;85.80
81192;DHT22;70665;47.652;-2.730;2023-07-24T07:50:31;19.60;84.30
81192;DHT22;70665;47.652;-2.730;2023-07-24T07:52:57;19.60;85.50
81192;DHT22;70665;47.652;-2.730;2023-07-24T07:55:23;19.70;85.50
81192;DHT22;70665;47.652;-2.730;2023-07-24T07:57:48;19.70;85.10
81192;DHT22;70665;47.652;-2.730;2023-07-24T08:00:14;19.80;85.80
81192;DHT22;70665;47.652;-2.730;2023-07-24T08:02:40;19.90;84.70
81192;DHT22;70665;47.652;-2.730;2023-07-24T08:05:07;20.10;84.80
81192;DHT22;70665;47.652;-2.730;2023-07-24T08:07:32;20.20;84.50
81192;DHT22;70665;47.652;-2.730;2023-07-24T08:09:58;20.50;83.30
81192;DHT22;70665;47.652;-2.730;2023-07-24T08:12:24;20.60;81.50
81192;DHT22;70665;47.652;-2.730;2023-07-24T08:14:50;20.70;83.20
81192;DHT22;70665;47.652;-2.730;2023-07-24T08:17:15;20.40;82.90
81192;DHT22;70665;47.652;-2.730;2023-07-24T08:19:41;19.90;84.90
81192;DHT22;70665;47.652;-2.730;2023-07-24T08:22:07;19.90;85.70
81192;DHT22;70665;47.652;-2.730;2023-07-24T08:24:35;20.10;85.00
81192;DHT22;70665;47.652;-2.730;2023-07-24T08:27:01;20.20;84.50
81192;DHT22;70665;47.652;-2.730;2023-07-24T08:29:27;20.20;82.90
81192;DHT22;70665;47.652;-2.730;2023-07-24T08:31:53;20.20;81.20
81192;DHT22;70665;47.652;-2.730;2023-07-24T08:34:18;20.30;82.70
81192;DHT22;70665;47.652;-2.730;2023-07-24T08:36:44;20.50;83.90
81192;DHT22;70665;47.652;-2.730;2023-07-24T08:39:09;20.60;82.90
81192;DHT22;70665;47.652;-2.730;2023-07-24T08:41:37;20.80;82.00
81192;DHT22;70665;47.652;-2.730;2023-07-24T08:44:07;20.80;82.80
81192;DHT22;70665;47.652;-2.730;2023-07-24T08:46:37;20.90;81.90
81192;DHT22;70665;47.652;-2.730;2023-07-24T08:49:04;20.90;82.30
81192;DHT22;70665;47.652;-2.730;2023-07-24T08:51:30;20.80;82.00
81192;DHT22;70665;47.652;-2.730;2023-07-24T08:53:57;20.90;81.80
81192;DHT22;70665;47.652;-2.730;2023-07-24T08:56:23;20.80;81.10
81192;DHT22;70665;47.652;-2.730;2023-07-24T08:58:49;20.70;82.70
81192;DHT22;70665;47.652;-2.730;2023-07-24T09:01:15;20.60;81.80
81192;DHT22;70665;47.652;-2.730;2023-07-24T09:03:41;20.60;83.00
81192;DHT22;70665;47.652;-2.730;2023-07-24T09:06:06;20.80;82.90
81192;DHT22;70665;47.652;-2.730;2023-07-24T09:08:40;21.20;82.50
81192;DHT22;70665;47.652;-2.730;2023-07-24T09:11:07;21.20;80.20
81192;DHT22;70665;47.652;-2.730;2023-07-24T09:13:35;20.90;81.20
81192;DHT22;70665;47.652;-2.730;2023-07-24T09:16:01;20.70;83.20
81192;DHT22;70665;47.652;-2.730;2023-07-24T09:18:26;20.50;83.80
81192;DHT22;70665;47.652;-2.730;2023-07-24T09:20:52;20.50;85.00
81192;DHT22;70665;47.652;-2.730;2023-07-24T09:23:27;20.40;83.40
81192;DHT22;70665;47.652;-2.730;2023-07-24T09:25:55;20.50;83.60
81192;DHT22;70665;47.652;-2.730;2023-07-24T09:28:22;20.60;82.50
81192;DHT22;70665;47.652;-2.730;2023-07-24T09:30:55;20.80;82.50
81192;DHT22;70665;47.652;-2.730;2023-07-24T09:33:33;20.90;83.30
81192;DHT22;70665;47.652;-2.730;2023-07-24T09:36:00;20.90;83.50
81192;DHT22;70665;47.652;-2.730;2023-07-24T09:38:26;21.20;82.10
81192;DHT22;70665;47.652;-2.730;2023-07-24T09:40:53;21.20;83.00
81192;DHT22;70665;47.652;-2.730;2023-07-24T09:43:26;21.50;80.70
81192;DHT22;70665;47.652;-2.730;2023-07-24T09:45:53;21.80;81.20
81192;DHT22;70665;47.652;-2.730;2023-07-24T09:48:20;22.20;79.60
81192;DHT22;70665;47.652;-2.730;2023-07-24T09:50:48;22.40;79.20
81192;DHT22;70665;47.652;-2.730;2023-07-24T09:53:37;22.90;76.60
81192;DHT22;70665;47.652;-2.730;2023-07-24T09:56:04;22.80;75.50
81192;DHT22;70665;47.652;-2.730;2023-07-24T09:58:33;22.50;77.90
81192;DHT22;70665;47.652;-2.730;2023-07-24T10:01:04;22.30;77.30
81192;DHT22;70665;47.652;-2.730;2023-07-24T10:03:40;22.20;75.90
81192;DHT22;70665;47.652;-2.730;2023-07-24T10:06:09;22.20;76.00
81192;DHT22;70665;47.652;-2.730;2023-07-24T10:08:38;22.30;74.00
81192;DHT22;70665;47.652;-2.730;2023-07-24T10:11:04;22.50;77.50
81192;DHT22;70665;47.652;-2.730;2023-07-24T10:13:31;22.60;76.80
81192;DHT22;70665;47.652;-2.730;2023-07-24T10:16:02;22.40;75.90
81192;DHT22;70665;47.652;-2.730;2023-07-24T10:18:30;22.40;75.80
81192;DHT22;70665;47.652;-2.730;2023-07-24T10:21:07;22.40;75.60
81192;DHT22;70665;47.652;-2.730;2023-07-24T10:23:37;22.30;76.70
81192;DHT22;70665;47.652;-2.730;2023-07-24T10:26:07;22.30;76.40
81192;DHT22;70665;47.652;-2.730;2023-07-24T10:28:34;22.30;76.60
81192;DHT22;70665;47.652;-2.730;2023-07-24T10:31:06;22.70;75.20
81192;DHT22;70665;47.652;-2.730;2023-07-24T10:33:35;23.10;73.10
81192;DHT22;70665;47.652;-2.730;2023-07-24T10:36:08;23.30;77.30
81192;DHT22;70665;47.652;-2.730;2023-07-24T10:38:41;23.70;71.00
81192;DHT22;70665;47.652;-2.730;2023-07-24T10:41:08;23.40;73.80
81192;DHT22;70665;47.652;-2.730;2023-07-24T10:43:45;22.90;73.60
81192;DHT22;70665;47.652;-2.730;2023-07-24T10:46:12;22.20;78.80
81192;DHT22;70665;47.652;-2.730;2023-07-24T10:48:42;21.80;79.40
81192;DHT22;70665;47.652;-2.730;2023-07-24T10:51:09;21.60;80.30
81192;DHT22;70665;47.652;-2.730;2023-07-24T10:53:38;21.80;80.10
81192;DHT22;70665;47.652;-2.730;2023-07-24T10:56:05;22.10;80.90
81192;DHT22;70665;47.652;-2.730;2023-07-24T10:58:32;22.50;76.50
81192;DHT22;70665;47.652;-2.730;2023-07-24T11:00:58;22.90;78.60
81192;DHT22;70665;47.652;-2.730;2023-07-24T11:03:25;23.30;75.10
81192;DHT22;70665;47.652;-2.730;2023-07-24T11:05:51;23.40;72.80
81192;DHT22;70665;47.652;-2.730;2023-07-24T11:08:19;23.50;73.60
81192;DHT22;70665;47.652;-2.730;2023-07-24T11:10:49;23.50;70.20
81192;DHT22;70665;47.652;-2.730;2023-07-24T11:13:16;23.60;72.30
81192;DHT22;70665;47.652;-2.730;2023-07-24T11:15:42;23.60;71.40
81192;DHT22;70665;47.652;-2.730;2023-07-24T11:18:08;23.60;72.40
81192;DHT22;70665;47.652;-2.730;2023-07-24T11:20:38;23.50;71.30
81192;DHT22;70665;47.652;-2.730;2023-07-24T11:23:04;23.40;73.40
81192;DHT22;70665;47.652;-2.730;2023-07-24T11:25:30;23.00;72.90
81192;DHT22;70665;47.652;-2.730;2023-07-24T11:27:55;22.80;76.40
81192;DHT22;70665;47.652;-2.730;2023-07-24T11:30:21;22.70;75.50
81192;DHT22;70665;47.652;-2.730;2023-07-24T11:32:48;22.90;77.70
81192;DHT22;70665;47.652;-2.730;2023-07-24T11:35:14;22.90;76.10
81192;DHT22;70665;47.652;-2.730;2023-07-24T11:37:40;23.40;75.40
81192;DHT22;70665;47.652;-2.730;2023-07-24T11:40:06;23.80;70.90
81192;DHT22;70665;47.652;-2.730;2023-07-24T11:42:54;23.80;71.80
81192;DHT22;70665;47.652;-2.730;2023-07-24T11:45:19;23.40;76.40
81192;DHT22;70665;47.652;-2.730;2023-07-24T11:47:48;23.00;75.30
81192;DHT22;70665;47.652;-2.730;2023-07-24T11:50:15;23.00;76.50
81192;DHT22;70665;47.652;-2.730;2023-07-24T11:52:43;23.30;73.50
81192;DHT22;70665;47.652;-2.730;2023-07-24T11:55:10;23.30;73.30
81192;DHT22;70665;47.652;-2.730;2023-07-24T11:57:36;23.40;74.00
81192;DHT22;70665;47.652;-2.730;2023-07-24T12:00:03;23.70;72.20
81192;DHT22;70665;47.652;-2.730;2023-07-24T12:02:29;23.80;70.20
81192;DHT22;70665;47.652;-2.730;2023-07-24T12:04:58;23.80;68.70
81192;DHT22;70665;47.652;-2.730;2023-07-24T12:07:30;23.90;67.20
81192;DHT22;70665;47.652;-2.730;2023-07-24T12:09:55;23.70;67.60
81192;DHT22;70665;47.652;-2.730;2023-07-24T12:12:21;24.00;66.70
81192;DHT22;70665;47.652;-2.730;2023-07-24T12:14:47;24.10;69.30
81192;DHT22;70665;47.652;-2.730;2023-07-24T12:17:18;24.20;67.40
81192;DHT22;70665;47.652;-2.730;2023-07-24T12:19:44;24.20;69.50
81192;DHT22;70665;47.652;-2.730;2023-07-24T12:22:09;24.20;66.40
81192;DHT22;70665;47.652;-2.730;2023-07-24T12:24:35;24.40;66.20
81192;DHT22;70665;47.652;-2.730;2023-07-24T12:27:00;24.70;68.50
81192;DHT22;70665;47.652;-2.730;2023-07-24T12:29:26;24.70;67.80
81192;DHT22;70665;47.652;-2.730;2023-07-24T12:31:52;24.20;67.30
81192;DHT22;70665;47.652;-2.730;2023-07-24T12:34:17;24.10;69.80
81192;DHT22;70665;47.652;-2.730;2023-07-24T12:36:43;24.10;71.40
81192;DHT22;70665;47.652;-2.730;2023-07-24T12:39:09;24.00;68.40
81192;DHT22;70665;47.652;-2.730;2023-07-24T12:41:34;23.80;69.90
81192;DHT22;70665;47.652;-2.730;2023-07-24T12:44:00;24.60;66.90
81192;DHT22;70665;47.652;-2.730;2023-07-24T12:46:25;25.40;65.00
81192;DHT22;70665;47.652;-2.730;2023-07-24T12:48:51;25.80;61.60
81192;DHT22;70665;47.652;-2.730;2023-07-24T12:51:17;26.20;60.30
81192;DHT22;70665;47.652;-2.730;2023-07-24T12:53:42;26.20;63.60
81192;DHT22;70665;47.652;-2.730;2023-07-24T12:56:08;25.50;64.20
81192;DHT22;70665;47.652;-2.730;2023-07-24T12:58:33;25.70;66.00
81192;DHT22;70665;47.652;-2.730;2023-07-24T13:00:59;25.60;66.40
81192;DHT22;70665;47.652;-2.730;2023-07-24T13:03:25;26.10;60.70
81192;DHT22;70665;47.652;-2.730;2023-07-24T13:05:50;26.60;58.20
81192;DHT22;70665;47.652;-2.730;2023-07-24T13:08:16;26.80;57.70
81192;DHT22;70665;47.652;-2.730;2023-07-24T13:10:42;26.50;59.60
81192;DHT22;70665;47.652;-2.730;2023-07-24T13:13:07;26.00;59.20
81192;DHT22;70665;47.652;-2.730;2023-07-24T13:15:34;25.90;61.40
81192;DHT22;70665;47.652;-2.730;2023-07-24T13:18:00;26.00;60.20
81192;DHT22;70665;47.652;-2.730;2023-07-24T13:20:25;26.70;60.40
81192;DHT22;70665;47.652;-2.730;2023-07-24T13:22:51;26.90;57.10
81192;DHT22;70665;47.652;-2.730;2023-07-24T13:25:17;26.90;60.70
81192;DHT22;70665;47.652;-2.730;2023-07-24T13:27:42;26.70;59.90
81192;DHT22;70665;47.652;-2.730;2023-07-24T13:30:09;26.50;60.00
81192;DHT22;70665;47.652;-2.730;2023-07-24T13:32:35;26.70;61.30
81192;DHT22;70665;47.652;-2.730;2023-07-24T13:35:00;27.30;57.20
81192;DHT22;70665;47.652;-2.730;2023-07-24T13:37:26;27.60;57.40
81192;DHT22;70665;47.652;-2.730;2023-07-24T13:39:52;26.80;59.50
81192;DHT22;70665;47.652;-2.730;2023-07-24T13:42:17;26.20;60.90
81192;DHT22;70665;47.652;-2.730;2023-07-24T13:44:43;26.10;60.70
81192;DHT22;70665;47.652;-2.730;2023-07-24T13:47:08;27.00;60.30
81192;DHT22;70665;47.652;-2.730;2023-07-24T13:49:34;26.40;59.80
81192;DHT22;70665;47.652;-2.730;2023-07-24T13:52:00;25.90;62.90
81192;DHT22;70665;47.652;-2.730;2023-07-24T13:54:25;26.10;61.30
81192;DHT22;70665;47.652;-2.730;2023-07-24T13:56:52;26.00;63.10
81192;DHT22;70665;47.652;-2.730;2023-07-24T13:59:17;25.80;59.10
81192;DHT22;70665;47.652;-2.730;2023-07-24T14:01:43;25.90;59.80
81192;DHT22;70665;47.652;-2.730;2023-07-24T14:04:09;25.80;59.90
81192;DHT22;70665;47.652;-2.730;2023-07-24T14:06:37;25.90;60.00
81192;DHT22;70665;47.652;-2.730;2023-07-24T14:09:03;25.60;60.70
81192;DHT22;70665;47.652;-2.730;2023-07-24T14:11:28;25.90;58.00
81192;DHT22;70665;47.652;-2.730;2023-07-24T14:13:54;26.40;56.20
81192;DHT22;70665;47.652;-2.730;2023-07-24T14:16:20;26.40;58.30
81192;DHT22;70665;47.652;-2.730;2023-07-24T14:18:45;26.10;58.00
81192;DHT22;70665;47.652;-2.730;2023-07-24T14:21:11;26.60;61.40
81192;DHT22;70665;47.652;-2.730;2023-07-24T14:23:37;27.40;53.70
81192;DHT22;70665;47.652;-2.730;2023-07-24T14:26:02;27.20;55.10
81192;DHT22;70665;47.652;-2.730;2023-07-24T14:28:28;27.00;58.40
81192;DHT22;70665;47.652;-2.730;2023-07-24T14:30:54;26.40;56.90
81192;DHT22;70665;47.652;-2.730;2023-07-24T14:33:19;26.20;57.20
81192;DHT22;70665;47.652;-2.730;2023-07-24T14:35:45;26.30;60.80
81192;DHT22;70665;47.652;-2.730;2023-07-24T14:38:11;26.40;58.00
81192;DHT22;70665;47.652;-2.730;2023-07-24T14:40:36;26.70;57.60
81192;DHT22;70665;47.652;-2.730;2023-07-24T14:43:02;26.40;57.70
81192;DHT22;70665;47.652;-2.730;2023-07-24T14:45:27;25.80;59.30
81192;DHT22;70665;47.652;-2.730;2023-07-24T14:47:53;25.50;60.80
81192;DHT22;70665;47.652;-2.730;2023-07-24T14:50:19;25.90;63.10
81192;DHT22;70665;47.652;-2.730;2023-07-24T14:52:44;27.10;60.20
81192;DHT22;70665;47.652;-2.730;2023-07-24T14:55:10;27.00;59.00
81192;DHT22;70665;47.652;-2.730;2023-07-24T14:57:36;26.10;59.30
81192;DHT22;70665;47.652;-2.730;2023-07-24T15:00:01;25.40;63.90
81192;DHT22;70665;47.652;-2.730;2023-07-24T15:02:28;24.80;63.10
81192;DHT22;70665;47.652;-2.730;2023-07-24T15:04:54;24.40;65.70
81192;DHT22;70665;47.652;-2.730;2023-07-24T15:07:20;24.20;65.20
81192;DHT22;70665;47.652;-2.730;2023-07-24T15:09:45;24.10;66.10
81192;DHT22;70665;47.652;-2.730;2023-07-24T15:12:11;24.10;66.20